Time;durP1;ratioP1;P1;durP2;ratioP2;P2;SDS_P1;SDS_P2;PMS_P1;PMS_P2;Temp;Humidity;BMP_temperature;BMP_pressure;BME280_temperature;BME280_humidity;BME280_pressure;Samples;Min_cycle;Max_cycle;Signal;HPM_P1;HPM_P2
2021/05/06 00:30:25;;;;;;;4.10;3.17;;;;;;;;;;13030764;22;20205;-79
2021/05/06 00:35:28;;;;;;;6.80;3.27;;;;;;;;;;13030060;22;20185;-79
2021/05/06 00:40:41;;;;;;;5.53;3.57;;;;;;;;;;13034280;22;20941;-80
2021/05/06 01:01:54;;;;;;;4.33;2.97;;;;;;;;;;13027534;22;20292;-80
2021/05/06 01:07:06;;;;;;;3.67;2.77;;;;;;;;;;13034893;22;20550;-80
2021/05/06 01:12:08;;;;;;;5.00;3.30;;;;;;;;;;13032491;22;20166;-80
2021/05/06 01:17:10;;;;;;;4.20;2.90;;;;;;;;;;13010811;22;20181;-80
2021/05/06 01:22:13;;;;;;;3.93;2.90;;;;;;;;;;13033908;22;20311;-79
2021/05/06 01:27:18;;;;;;;4.87;3.33;;;;;;;;;;13019750;22;20180;-81
2021/05/06 01:32:25;;;;;;;4.30;3.27;;;;;;;;;;13037505;22;20551;-80
2021/05/06 01:37:32;;;;;;;5.10;3.50;;;;;;;;;;13041300;22;20277;-79
2021/05/06 01:42:37;;;;;;;4.47;3.33;;;;;;;;;;13038634;22;20197;-80
2021/05/06 01:47:42;;;;;;;4.37;3.50;;;;;;;;;;13039826;22;20165;-80
2021/05/06 01:58:29;;;;;;;5.47;3.70;;;;;;;;;;13039997;22;20511;-80
2021/05/06 02:03:32;;;;;;;5.93;3.67;;;;;;;;;;13027314;22;20263;-80
2021/05/06 02:08:34;;;;;;;5.13;3.93;;;;;;;;;;13020769;22;20173;-79
2021/05/06 02:13:36;;;;;;;4.60;3.90;;;;;;;;;;13040581;22;20196;-79
2021/05/06 02:18:38;;;;;;;5.03;3.70;;;;;;;;;;13039071;22;20236;-79
2021/05/06 02:23:40;;;;;;;5.13;3.60;;;;;;;;;;13031593;22;20307;-80
2021/05/06 02:28:42;;;;;;;5.60;3.63;;;;;;;;;;13018075;22;20529;-80
2021/05/06 02:33:44;;;;;;;4.63;4.10;;;;;;;;;;13036466;22;20709;-80
2021/05/06 02:38:47;;;;;;;6.53;4.27;;;;;;;;;;13038045;22;20224;-79
2021/05/06 02:43:49;;;;;;;6.00;4.63;;;;;;;;;;13014948;22;20201;-79
2021/05/06 02:48:51;;;;;;;5.07;4.33;;;;;;;;;;13035458;22;20181;-80
2021/05/06 02:53:54;;;;;;;6.37;4.77;;;;;;;;;;13036143;22;20192;-79
2021/05/06 02:59:09;;;;;;;6.10;4.30;;;;;;;;;;13015878;22;20186;-79
2021/05/06 03:04:11;;;;;;;5.70;4.80;;;;;;;;;;13031580;22;20288;-79
2021/05/06 03:09:26;;;;;;;7.70;5.67;;;;;;;;;;13015921;22;20177;-80
2021/05/06 03:14:47;;;;;;;9.43;5.10;;;;;;;;;;13012176;22;20227;-78
2021/05/06 03:25:12;;;;;;;6.90;5.10;;;;;;;;;;13035236;22;20189;-79
2021/05/06 03:30:32;;;;;;;6.73;5.00;;;;;;;;;;13028499;22;20177;-79
2021/05/06 03:35:56;;;;;;;8.70;5.60;;;;;;;;;;13013843;22;20165;-79
2021/05/06 04:50:24;;;;;;;8.90;7.20;;;;;;;;;;13046183;22;20180;-79
2021/05/06 04:55:29;;;;;;;9.67;7.63;;;;;;;;;;13035145;22;20215;-79
2021/05/06 05:05:52;;;;;;;11.20;7.90;;;;;;;;;;13037277;22;20204;-89
2021/05/06 05:11:20;;;;;;;10.53;7.80;;;;;;;;;;13036229;22;20528;-87
2021/05/06 05:27:06;;;;;;;8.40;6.93;;;;;;;;;;13010403;22;20169;-79
2021/05/06 05:32:09;;;;;;;9.47;7.40;;;;;;;;;;13009194;22;20578;-87
2021/05/06 05:37:16;;;;;;;10.77;7.57;;;;;;;;;;13019886;22;20587;-84
2021/05/06 05:42:25;;;;;;;10.33;7.67;;;;;;;;;;13034150;22;20189;-85
2021/05/06 05:58:05;;;;;;;9.63;7.00;;;;;;;;;;13037194;22;20192;-86
2021/05/06 06:03:10;;;;;;;8.67;6.13;;;;;;;;;;13031229;22;20297;-86
2021/05/06 06:08:12;;;;;;;6.40;5.40;;;;;;;;;;13035634;22;20178;-86
2021/05/06 06:13:14;;;;;;;6.97;5.10;;;;;;;;;;13037874;22;20182;-88
2021/05/06 06:18:20;;;;;;;6.43;4.77;;;;;;;;;;13037314;22;20260;-86
2021/05/06 06:23:23;;;;;;;10.17;4.33;;;;;;;;;;13038063;22;20190;-88
2021/05/06 06:28:26;;;;;;;7.73;5.23;;;;;;;;;;13038448;22;20847;-87
2021/05/06 06:33:29;;;;;;;5.90;4.60;;;;;;;;;;13036477;22;20169;-88
2021/05/06 06:38:31;;;;;;;5.53;4.20;;;;;;;;;;13042830;22;20174;-88
2021/05/06 06:43:33;;;;;;;7.80;4.50;;;;;;;;;;13017985;22;20205;-86
2021/05/06 06:48:37;;;;;;;4.97;4.10;;;;;;;;;;13040429;22;20174;-88
2021/05/06 06:53:39;;;;;;;4.70;3.97;;;;;;;;;;13039741;22;20743;-84
2021/05/06 06:58:41;;;;;;;7.10;4.10;;;;;;;;;;13042373;22;20252;-88
2021/05/06 07:03:44;;;;;;;5.97;4.07;;;;;;;;;;13037716;22;20578;-87
2021/05/06 07:08:47;;;;;;;5.57;3.97;;;;;;;;;;13041776;22;20176;-88
2021/05/06 07:13:49;;;;;;;7.30;4.10;;;;;;;;;;13037983;22;20170;-88
2021/05/06 07:18:52;;;;;;;5.83;4.20;;;;;;;;;;13037668;22;20184;-86
2021/05/06 07:23:54;;;;;;;5.37;4.10;;;;;;;;;;13033803;22;20205;-87
2021/05/06 07:29:00;;;;;;;7.57;4.90;;;;;;;;;;13035516;22;20181;-87
2021/05/06 07:34:05;;;;;;;8.83;5.30;;;;;;;;;;13011470;22;20875;-86
2021/05/06 07:39:10;;;;;;;9.93;6.07;;;;;;;;;;13036057;22;20181;-87
2021/05/06 07:44:15;;;;;;;8.93;5.93;;;;;;;;;;13014817;22;20212;-87
2021/05/06 07:49:19;;;;;;;11.03;5.47;;;;;;;;;;13032981;22;20690;-86
2021/05/06 07:54:24;;;;;;;8.53;5.50;;;;;;;;;;13015145;22;20190;-88
2021/05/06 07:59:30;;;;;;;9.07;5.50;;;;;;;;;;13036133;22;20174;-87
2021/05/06 08:04:33;;;;;;;7.50;4.73;;;;;;;;;;13015366;22;20301;-89
2021/05/06 08:09:35;;;;;;;8.33;5.10;;;;;;;;;;13035620;22;20207;-87
2021/05/06 08:14:37;;;;;;;6.77;5.00;;;;;;;;;;13036140;22;20231;-87
2021/05/06 08:19:41;;;;;;;8.87;4.90;;;;;;;;;;13037035;22;20243;-88
2021/05/06 08:24:43;;;;;;;7.23;5.50;;;;;;;;;;13017616;22;20240;-87
2021/05/06 08:29:46;;;;;;;5.97;5.03;;;;;;;;;;13034984;22;20601;-87
2021/05/06 08:34:49;;;;;;;8.10;5.00;;;;;;;;;;13038750;22;20861;-88
2021/05/06 08:39:51;;;;;;;8.37;5.03;;;;;;;;;;13038220;22;20165;-87
2021/05/06 08:44:53;;;;;;;7.83;4.93;;;;;;;;;;13036760;22;20223;-87
2021/05/06 08:49:56;;;;;;;7.07;4.67;;;;;;;;;;13015723;22;20230;-87
2021/05/06 08:54:58;;;;;;;7.97;5.23;;;;;;;;;;13035908;22;20205;-86
2021/05/06 09:00:00;;;;;;;7.50;4.90;;;;;;;;;;13011081;22;20512;-88
2021/05/06 09:05:07;;;;;;;6.10;4.53;;;;;;;;;;13035190;22;20216;-87
2021/05/06 09:10:09;;;;;;;6.10;4.50;;;;;;;;;;13034251;22;20174;-89
2021/05/06 09:15:15;;;;;;;8.07;4.90;;;;;;;;;;13034866;22;20208;-87
2021/05/06 09:20:19;;;;;;;9.10;4.53;;;;;;;;;;13032732;22;20178;-87
2021/05/06 09:25:22;;;;;;;8.53;4.27;;;;;;;;;;13014502;22;20202;-87
2021/05/06 09:30:24;;;;;;;5.97;4.47;;;;;;;;;;13033549;22;20173;-87
2021/05/06 09:35:27;;;;;;;8.87;4.70;;;;;;;;;;13037236;22;20261;-87
2021/05/06 09:40:29;;;;;;;4.53;3.70;;;;;;;;;;13033373;22;20170;-86
2021/05/06 09:45:31;;;;;;;5.23;3.40;;;;;;;;;;13012495;22;20536;-86
2021/05/06 09:50:34;;;;;;;5.83;3.20;;;;;;;;;;13036886;22;20951;-87
2021/05/06 09:55:36;;;;;;;5.67;3.07;;;;;;;;;;13039609;22;20185;-88
2021/05/06 10:00:38;;;;;;;3.63;2.87;;;;;;;;;;13033150;22;20173;-87
2021/05/06 10:05:42;;;;;;;6.47;3.20;;;;;;;;;;13036124;22;20202;-86
2021/05/06 10:10:44;;;;;;;5.07;3.37;;;;;;;;;;13035312;22;20173;-85
2021/05/06 10:15:46;;;;;;;6.77;3.50;;;;;;;;;;13035418;22;20248;-85
2021/05/06 10:20:48;;;;;;;5.13;3.40;;;;;;;;;;13034814;22;20184;-84
2021/05/06 10:25:52;;;;;;;6.00;3.50;;;;;;;;;;13036355;22;20213;-87
2021/05/06 10:30:55;;;;;;;6.57;3.70;;;;;;;;;;13031407;22;20492;-86
2021/05/06 10:35:58;;;;;;;6.77;3.67;;;;;;;;;;13034276;22;20261;-85
2021/05/06 10:41:15;;;;;;;5.43;3.23;;;;;;;;;;13036500;22;20174;-85
2021/05/06 10:46:17;;;;;;;6.67;3.27;;;;;;;;;;13031585;22;20211;-88
2021/05/06 10:51:27;;;;;;;6.73;3.10;;;;;;;;;;13035184;22;20256;-85
2021/05/06 10:56:38;;;;;;;4.47;2.87;;;;;;;;;;13037116;22;20181;-88
2021/05/06 11:01:41;;;;;;;6.10;3.30;;;;;;;;;;13012364;22;20631;-86
2021/05/06 11:06:45;;;;;;;6.73;3.70;;;;;;;;;;13037140;22;20205;-87
2021/05/06 11:12:16;;;;;;;7.00;3.77;;;;;;;;;;13014847;22;20201;-87
2021/05/06 11:17:18;;;;;;;6.10;3.60;;;;;;;;;;13034395;22;20174;-88
2021/05/06 11:22:57;;;;;;;6.93;3.27;;;;;;;;;;13038141;22;20212;-87
2021/05/06 11:28:00;;;;;;;5.03;3.40;;;;;;;;;;12836490;23;21024;-87
2021/05/06 11:33:17;;;;;;;5.63;3.63;;;;;;;;;;12988376;22;20485;-85
2021/05/06 11:38:19;;;;;;;5.67;3.90;;;;;;;;;;13034894;22;20182;-86
2021/05/06 11:43:22;;;;;;;5.57;4.17;;;;;;;;;;13036319;22;20201;-88
2021/05/06 11:48:33;;;;;;;5.53;3.83;;;;;;;;;;13035527;22;20253;-86
2021/05/06 11:53:36;;;;;;;5.33;3.80;;;;;;;;;;13037250;22;20181;-89
2021/05/06 11:58:40;;;;;;;5.07;3.63;;;;;;;;;;13031798;22;20522;-85
2021/05/06 12:03:43;;;;;;;5.83;3.57;;;;;;;;;;13034396;22;20747;-85
2021/05/06 12:08:46;;;;;;;5.57;3.73;;;;;;;;;;13031788;22;21077;-88
2021/05/06 12:13:50;;;;;;;5.03;3.60;;;;;;;;;;13035352;22;20178;-87
2021/05/06 12:18:57;;;;;;;7.60;3.67;;;;;;;;;;13032131;22;20257;-87
2021/05/06 12:23:59;;;;;;;6.33;3.87;;;;;;;;;;13036183;22;20201;-87
2021/05/06 12:29:02;;;;;;;6.13;3.47;;;;;;;;;;13036528;22;20261;-90
2021/05/06 12:34:13;;;;;;;4.80;3.30;;;;;;;;;;13012987;22;20235;-87
2021/05/06 12:39:16;;;;;;;6.60;3.67;;;;;;;;;;13037411;22;20584;-87
2021/05/06 12:44:50;;;;;;;7.00;3.63;;;;;;;;;;13032634;22;20189;-87
2021/05/06 12:50:07;;;;;;;4.20;3.40;;;;;;;;;;12843487;22;20174;-88
2021/05/06 12:55:19;;;;;;;6.27;3.03;;;;;;;;;;13028019;22;20228;-87
2021/05/06 13:00:22;;;;;;;7.43;3.70;;;;;;;;;;13031865;22;20204;-88
2021/05/06 13:05:29;;;;;;;7.47;3.57;;;;;;;;;;13014540;22;20237;-88
2021/05/06 13:10:32;;;;;;;4.87;3.77;;;;;;;;;;13036511;22;20173;-88
2021/05/06 13:15:48;;;;;;;5.63;3.80;;;;;;;;;;13030437;22;20248;-88
2021/05/06 13:20:51;;;;;;;5.57;3.90;;;;;;;;;;13035494;22;20215;-88
2021/05/06 13:25:54;;;;;;;6.03;3.93;;;;;;;;;;13036053;22;20250;-88
2021/05/06 13:31:04;;;;;;;5.83;3.73;;;;;;;;;;13014480;22;20705;-88
2021/05/06 13:36:07;;;;;;;5.87;3.57;;;;;;;;;;13032949;22;20886;-88
2021/05/06 13:41:09;;;;;;;4.80;3.40;;;;;;;;;;13035912;22;20259;-90
2021/05/06 13:46:12;;;;;;;5.77;3.43;;;;;;;;;;13031663;22;20208;-88
2021/05/06 13:51:16;;;;;;;5.67;3.93;;;;;;;;;;13036916;22;20174;-89
2021/05/06 13:56:18;;;;;;;5.83;4.33;;;;;;;;;;13013335;22;20211;-87
2021/05/06 14:01:20;;;;;;;6.23;4.03;;;;;;;;;;13038296;22;20272;-89
2021/05/06 14:06:23;;;;;;;6.83;4.63;;;;;;;;;;13034689;22;20247;-88
2021/05/06 14:11:26;;;;;;;6.43;4.20;;;;;;;;;;13035682;22;20247;-86
2021/05/06 14:16:37;;;;;;;5.97;4.00;;;;;;;;;;13031562;22;20643;-87
2021/05/06 14:21:41;;;;;;;6.20;4.10;;;;;;;;;;13016381;22;20249;-86
2021/05/06 14:26:45;;;;;;;5.23;3.83;;;;;;;;;;13032985;22;20209;-88
2021/05/06 14:31:47;;;;;;;6.07;3.70;;;;;;;;;;13036336;22;20181;-85
2021/05/06 14:36:53;;;;;;;6.27;4.00;;;;;;;;;;13038715;22;20201;-87
2021/05/06 14:41:55;;;;;;;6.07;3.70;;;;;;;;;;13040155;22;20173;-86
2021/05/06 14:46:57;;;;;;;6.10;3.73;;;;;;;;;;13035058;22;20475;-86
2021/05/06 14:52:00;;;;;;;5.63;3.50;;;;;;;;;;13037472;22;20542;-86
2021/05/06 14:57:03;;;;;;;6.03;3.10;;;;;;;;;;13034043;22;20178;-86
2021/05/06 15:02:05;;;;;;;4.73;3.57;;;;;;;;;;13036406;22;20421;-87
2021/05/06 15:07:08;;;;;;;7.80;4.33;;;;;;;;;;13036391;22;20578;-85
2021/05/06 15:12:11;;;;;;;7.87;3.83;;;;;;;;;;13036868;22;20661;-84
2021/05/06 15:17:13;;;;;;;4.27;3.20;;;;;;;;;;13029945;22;20656;-87
2021/05/06 15:22:16;;;;;;;6.63;3.40;;;;;;;;;;13033608;22;20269;-86
2021/05/06 15:27:25;;;;;;;5.60;3.23;;;;;;;;;;13030912;22;20589;-85
2021/05/06 15:32:27;;;;;;;5.10;3.07;;;;;;;;;;13034182;22;20272;-86
2021/05/06 15:37:30;;;;;;;7.43;3.37;;;;;;;;;;13011649;22;20178;-79
2021/05/06 15:42:32;;;;;;;7.43;3.40;;;;;;;;;;13033750;22;20184;-78
2021/05/06 15:47:34;;;;;;;4.77;3.37;;;;;;;;;;13008523;22;20178;-79
2021/05/06 15:52:38;;;;;;;9.37;4.90;;;;;;;;;;13029003;22;20732;-78
2021/05/06 15:57:42;;;;;;;6.77;3.33;;;;;;;;;;13011488;22;20180;-84
2021/05/06 16:02:48;;;;;;;6.37;3.43;;;;;;;;;;13011970;22;20281;-88
2021/05/06 16:07:51;;;;;;;6.30;3.30;;;;;;;;;;13042216;22;20176;-95
2021/05/06 16:12:53;;;;;;;5.97;3.10;;;;;;;;;;13046525;22;20184;-90
2021/05/06 16:17:55;;;;;;;5.13;2.70;;;;;;;;;;13015837;22;20184;-90
2021/05/06 16:22:59;;;;;;;4.13;2.63;;;;;;;;;;13041007;22;20186;-88
2021/05/06 16:28:01;;;;;;;3.53;2.20;;;;;;;;;;13031924;22;20943;-79
2021/05/06 16:33:06;;;;;;;3.93;2.37;;;;;;;;;;13006692;22;20738;-83
2021/05/06 16:38:11;;;;;;;3.80;2.33;;;;;;;;;;13032629;22;20251;-83
2021/05/06 16:43:30;;;;;;;4.17;2.40;;;;;;;;;;13007928;22;20284;-80
2021/05/06 16:48:34;;;;;;;5.97;3.00;;;;;;;;;;13035946;22;20170;-91
2021/05/06 16:53:37;;;;;;;6.07;3.10;;;;;;;;;;13043770;22;20220;-91
2021/05/06 16:58:39;;;;;;;4.57;2.63;;;;;;;;;;13041939;22;20615;-87
2021/05/06 17:03:40;;;;;;;5.40;3.30;;;;;;;;;;13031918;22;20293;-82
2021/05/06 17:08:43;;;;;;;8.03;3.50;;;;;;;;;;13033284;22;20165;-84
2021/05/06 17:13:45;;;;;;;6.27;3.50;;;;;;;;;;13033057;22;20181;-87
2021/05/06 17:18:47;;;;;;;6.97;3.67;;;;;;;;;;13031730;22;20227;-88
2021/05/06 17:23:52;;;;;;;5.37;3.17;;;;;;;;;;13011705;22;20205;-88
2021/05/06 17:28:54;;;;;;;3.93;3.00;;;;;;;;;;13013418;22;20507;-88
2021/05/06 17:33:56;;;;;;;4.93;3.50;;;;;;;;;;13010689;22;20520;-88
2021/05/06 17:38:59;;;;;;;4.97;2.97;;;;;;;;;;13036335;22;20332;-88
2021/05/06 17:44:02;;;;;;;4.87;3.20;;;;;;;;;;13035130;22;20229;-89
2021/05/06 17:49:04;;;;;;;4.67;3.40;;;;;;;;;;13034975;22;20182;-80
2021/05/06 17:54:10;;;;;;;5.03;3.50;;;;;;;;;;13005754;22;20204;-80
2021/05/06 17:59:15;;;;;;;3.90;3.00;;;;;;;;;;13030757;22;20261;-86
2021/05/06 18:04:17;;;;;;;5.53;3.37;;;;;;;;;;13032063;22;20220;-84
2021/05/06 18:09:26;;;;;;;7.27;3.70;;;;;;;;;;13044841;22;20194;-82
2021/05/06 18:14:31;;;;;;;6.87;3.40;;;;;;;;;;13035516;22;20276;-89
2021/05/06 18:19:33;;;;;;;5.43;3.47;;;;;;;;;;13036189;22;20228;-84
2021/05/06 18:24:36;;;;;;;6.30;3.30;;;;;;;;;;13035356;22;20288;-89
2021/05/06 18:29:38;;;;;;;4.57;3.10;;;;;;;;;;13038450;22;20170;-84
2021/05/06 18:34:40;;;;;;;5.23;3.90;;;;;;;;;;13015332;22;20203;-81
2021/05/06 18:39:42;;;;;;;5.53;3.50;;;;;;;;;;13009435;22;20625;-87
2021/05/06 18:44:46;;;;;;;5.80;3.47;;;;;;;;;;13030567;22;20466;-94
2021/05/06 18:49:48;;;;;;;8.60;3.23;;;;;;;;;;13038658;22;20646;-85
2021/05/06 18:54:51;;;;;;;5.90;3.17;;;;;;;;;;13040835;22;20351;-87
2021/05/06 18:59:53;;;;;;;6.20;2.80;;;;;;;;;;13049170;22;20257;-86
2021/05/06 19:04:55;;;;;;;8.00;2.93;;;;;;;;;;13042917;22;20717;-88
2021/05/06 19:09:58;;;;;;;9.17;3.60;;;;;;;;;;13037495;22;20249;-86
2021/05/06 19:15:03;;;;;;;7.57;3.30;;;;;;;;;;13014384;22;20173;-85
2021/05/06 19:20:05;;;;;;;10.07;3.67;;;;;;;;;;13034192;22;20645;-87
2021/05/06 19:25:09;;;;;;;7.47;3.90;;;;;;;;;;13041223;22;20201;-89
2021/05/06 19:30:11;;;;;;;8.53;3.30;;;;;;;;;;13032213;22;20665;-92
2021/05/06 19:35:14;;;;;;;9.30;3.47;;;;;;;;;;13045161;22;20564;-88
2021/05/06 19:40:17;;;;;;;4.60;2.43;;;;;;;;;;13048538;22;20674;-82
2021/05/06 19:45:23;;;;;;;3.73;2.07;;;;;;;;;;13041555;22;20662;-89
2021/05/06 19:50:25;;;;;;;5.67;2.20;;;;;;;;;;13046745;22;20526;-88
2021/05/06 19:55:28;;;;;;;4.13;2.67;;;;;;;;;;13047033;22;20209;-95
